createdAt,value
2022-10-22T00:01:29.725Z,12.39
2022-10-22T00:03:02.778Z,12.14
2022-10-22T00:04:35.503Z,12.13
2022-10-22T00:06:07.731Z,12.07
2022-10-22T00:07:39.738Z,11.94
2022-10-22T00:09:11.584Z,12.09
2022-10-22T00:10:43.228Z,12.24
2022-10-22T00:12:14.883Z,12.25
2022-10-22T00:15:18.274Z,12.18
2022-10-22T00:16:49.971Z,12.20
2022-10-22T00:18:22.932Z,12.33
2022-10-22T00:19:54.523Z,12.18
2022-10-22T00:21:29.001Z,12.03
2022-10-22T00:23:00.611Z,12.18
2022-10-22T00:24:32.280Z,12.26
2022-10-22T00:26:04.069Z,12.27
2022-10-22T00:27:35.631Z,12.09
2022-10-22T00:29:07.267Z,11.93
2022-10-22T00:30:38.896Z,11.99
2022-10-22T00:32:10.605Z,11.95
2022-10-22T00:33:43.800Z,12.25
2022-10-22T00:35:15.404Z,12.43
2022-10-22T00:36:47.250Z,12.46
2022-10-22T00:38:18.917Z,12.37
2022-10-22T00:39:50.499Z,12.24
2022-10-22T00:41:22.305Z,12.33
2022-10-22T00:42:53.936Z,12.39
2022-10-22T00:45:03.097Z,12.15
2022-10-22T00:46:34.716Z,12.27
2022-10-22T00:48:07.173Z,12.35
2022-10-22T00:49:40.136Z,12.30
2022-10-22T00:51:11.784Z,12.32
2022-10-22T00:52:43.594Z,12.36
2022-10-22T00:54:15.349Z,12.48
2022-10-22T00:55:48.969Z,12.58
2022-10-22T00:57:20.586Z,12.34
2022-10-22T00:58:53.356Z,12.16
2022-10-22T01:00:25.019Z,12.24
2022-10-22T01:01:56.674Z,12.37
2022-10-22T01:03:28.271Z,12.40
2022-10-22T01:05:01.333Z,12.37
2022-10-22T01:06:33.621Z,12.44
2022-10-22T01:08:05.756Z,12.39
2022-10-22T01:09:40.956Z,12.19
2022-10-22T01:11:15.147Z,12.36
2022-10-22T01:12:49.732Z,12.28
2022-10-22T01:14:24.280Z,12.33
2022-10-22T01:15:58.870Z,12.28
2022-10-22T01:17:33.460Z,12.31
2022-10-22T01:19:13.892Z,12.36
2022-10-22T01:21:07.006Z,12.45
2022-10-22T01:22:40.253Z,12.37
2022-10-22T01:24:19.895Z,12.40
2022-10-22T01:25:53.923Z,12.55
2022-10-22T01:27:45.902Z,12.40
2022-10-22T01:29:19.170Z,12.31
2022-10-22T01:30:51.099Z,12.31
2022-10-22T01:32:23.505Z,12.38
2022-10-22T01:33:55.116Z,12.49
2022-10-22T01:35:27.949Z,12.43
2022-10-22T01:36:59.539Z,12.40
2022-10-22T01:38:31.121Z,12.39
2022-10-22T01:40:02.828Z,12.53
2022-10-22T01:41:34.625Z,12.58
2022-10-22T01:43:07.348Z,12.58
2022-10-22T01:44:40.350Z,12.55
2022-10-22T01:46:12.320Z,12.56
2022-10-22T01:47:49.786Z,12.51
2022-10-22T01:49:24.492Z,12.40
2022-10-22T01:51:22.647Z,12.43
2022-10-22T01:53:04.612Z,12.46
2022-10-22T01:54:38.492Z,12.34
2022-10-22T01:56:16.986Z,12.27
2022-10-22T01:57:51.172Z,12.31
2022-10-22T01:59:28.301Z,12.35
2022-10-22T02:01:04.951Z,12.27
2022-10-22T02:02:40.636Z,12.34
2022-10-22T02:04:13.817Z,12.37
2022-10-22T02:05:46.699Z,12.32
2022-10-22T02:07:20.531Z,12.29
2022-10-22T02:08:52.296Z,12.30
2022-10-22T02:10:23.996Z,12.26
2022-10-22T02:11:55.663Z,12.34
2022-10-22T02:13:28.310Z,12.39
2022-10-22T02:15:00.044Z,12.41
2022-10-22T02:16:34.430Z,12.35
2022-10-22T02:18:06.310Z,12.34
2022-10-22T02:19:39.798Z,12.33
2022-10-22T02:21:11.423Z,12.38
2022-10-22T02:22:43.237Z,12.25
2022-10-22T02:24:15.045Z,12.29
2022-10-22T02:25:48.151Z,12.32
2022-10-22T02:27:25.872Z,12.36
2022-10-22T02:28:59.943Z,12.28
2022-10-22T02:30:31.577Z,12.26
2022-10-22T02:32:04.820Z,12.25
2022-10-22T02:33:37.742Z,12.33
2022-10-22T02:35:09.389Z,12.39
2022-10-22T02:36:41.148Z,12.40
2022-10-22T02:38:12.776Z,12.28
2022-10-22T02:39:44.425Z,12.18
2022-10-22T02:41:16.315Z,12.18
2022-10-22T02:42:48.194Z,12.19
2022-10-22T02:44:21.014Z,12.36
2022-10-22T02:45:52.612Z,12.39
2022-10-22T02:47:25.715Z,12.43
2022-10-22T02:48:57.339Z,12.41
2022-10-22T02:50:28.990Z,12.23
2022-10-22T02:52:00.886Z,12.29
2022-10-22T02:53:32.487Z,12.32
2022-10-22T02:55:04.548Z,12.24
2022-10-22T02:56:36.216Z,12.30
2022-10-22T02:58:07.839Z,12.36
2022-10-22T02:59:39.474Z,12.32
2022-10-22T03:01:13.747Z,12.32
2022-10-22T03:02:49.073Z,12.25
2022-10-22T03:04:20.656Z,12.32
2022-10-22T03:05:52.373Z,12.41
2022-10-22T03:07:23.982Z,12.45
2022-10-22T03:08:55.670Z,12.43
2022-10-22T03:10:27.332Z,12.47
2022-10-22T03:11:58.980Z,12.39
2022-10-22T03:13:30.556Z,12.36
2022-10-22T03:15:02.120Z,12.32
2022-10-22T03:16:33.775Z,12.24
2022-10-22T03:18:06.800Z,12.26
2022-10-22T03:19:38.514Z,12.22
2022-10-22T03:21:11.360Z,12.23
2022-10-22T03:22:43.087Z,12.31
2022-10-22T03:24:16.319Z,12.27
2022-10-22T03:25:48.277Z,12.24
2022-10-22T03:27:20.384Z,12.14
2022-10-22T03:28:51.972Z,12.00
2022-10-22T03:30:23.575Z,11.95
2022-10-22T03:31:55.376Z,12.00
2022-10-22T03:33:28.350Z,12.05
2022-10-22T03:36:31.627Z,11.95
2022-10-22T03:38:03.249Z,11.98
2022-10-22T03:39:34.908Z,11.94
2022-10-22T03:41:06.596Z,11.97
2022-10-22T03:42:38.303Z,11.93
2022-10-22T03:44:10.132Z,11.90
2022-10-22T03:45:41.789Z,11.89
2022-10-22T03:47:13.795Z,11.83
2022-10-22T03:48:46.738Z,11.91
2022-10-22T03:50:18.757Z,11.99
2022-10-22T03:51:50.626Z,12.08
2022-10-22T03:53:22.238Z,12.10
2022-10-22T03:54:54.038Z,12.08
2022-10-22T03:56:25.624Z,12.17
2022-10-22T03:57:57.205Z,12.21
2022-10-22T03:59:28.835Z,12.11
2022-10-22T04:01:04.828Z,12.14
2022-10-22T04:02:36.470Z,12.01
2022-10-22T04:04:09.452Z,12.05
2022-10-22T04:05:41.058Z,12.14
2022-10-22T04:07:12.673Z,12.24
2022-10-22T04:08:44.377Z,12.27
2022-10-22T04:10:16.178Z,12.10
2022-10-22T04:11:47.779Z,12.13
2022-10-22T04:13:19.452Z,12.17
2022-10-22T04:14:51.052Z,12.16
2022-10-22T04:16:25.004Z,12.11
2022-10-22T04:17:59.131Z,12.21
2022-10-22T04:19:32.074Z,12.10
2022-10-22T04:21:04.241Z,12.05
2022-10-22T04:22:36.012Z,12.19
2022-10-22T04:24:07.739Z,12.21
2022-10-22T04:25:39.422Z,12.22
2022-10-22T04:27:11.028Z,12.12
2022-10-22T04:28:42.755Z,12.21
2022-10-22T04:30:14.380Z,12.17
2022-10-22T04:31:45.960Z,12.20
2022-10-22T04:33:18.110Z,12.17
2022-10-22T04:34:51.042Z,12.22
2022-10-22T04:36:22.792Z,12.25
2022-10-22T04:37:54.551Z,12.27
2022-10-22T04:39:26.303Z,12.28
2022-10-22T04:40:57.928Z,12.09
2022-10-22T04:42:29.560Z,12.04
2022-10-22T04:44:01.244Z,12.20
2022-10-22T04:45:32.942Z,12.25
2022-10-22T04:47:04.655Z,12.27
2022-10-22T04:48:36.532Z,12.29
2022-10-22T04:50:09.881Z,12.32
2022-10-22T04:51:41.502Z,12.15
2022-10-22T04:53:13.107Z,12.28
2022-10-22T04:54:44.707Z,12.24
2022-10-22T04:56:19.828Z,12.30
2022-10-22T04:57:51.410Z,12.26
2022-10-22T04:59:23.058Z,12.07
2022-10-22T05:00:54.714Z,12.14
2022-10-22T05:02:26.317Z,12.12
2022-10-22T05:03:59.108Z,12.17
2022-10-22T05:05:32.370Z,12.20
2022-10-22T05:07:03.965Z,12.29
2022-10-22T05:08:35.698Z,12.21
2022-10-22T05:10:08.533Z,12.31
2022-10-22T05:11:46.136Z,12.37
2022-10-22T05:13:17.735Z,12.30
2022-10-22T05:14:49.389Z,12.25
2022-10-22T05:16:20.981Z,12.35
2022-10-22T05:17:52.621Z,12.21
2022-10-22T05:19:25.271Z,12.14
2022-10-22T05:20:58.203Z,11.84
2022-10-22T05:22:29.866Z,11.93
2022-10-22T05:24:01.499Z,11.98
2022-10-22T05:25:37.101Z,12.06
2022-10-22T05:27:08.883Z,12.11
2022-10-22T05:28:40.653Z,12.05
2022-10-22T05:30:12.752Z,11.97
2022-10-22T05:31:44.398Z,11.94
2022-10-22T05:33:16.065Z,11.79
2022-10-22T05:34:47.662Z,11.83
2022-10-22T05:36:21.548Z,11.87
2022-10-22T05:37:53.180Z,11.93
2022-10-22T05:39:24.825Z,12.06
2022-10-22T05:41:00.645Z,12.06
2022-10-22T05:42:32.326Z,11.94
2022-10-22T05:44:04.114Z,11.92
2022-10-22T05:45:36.704Z,12.06
2022-10-22T05:47:09.982Z,12.01
2022-10-22T05:48:41.684Z,12.07
2022-10-22T05:50:13.546Z,11.91
2022-10-22T05:51:46.912Z,12.04
2022-10-22T05:53:18.578Z,12.00
2022-10-22T05:54:50.186Z,12.01
2022-10-22T05:56:21.968Z,12.04
2022-10-22T05:57:53.599Z,12.02
2022-10-22T05:59:25.261Z,12.02
2022-10-22T06:01:01.468Z,12.13
2022-10-22T06:02:33.199Z,12.25
2022-10-22T06:04:06.073Z,12.22
2022-10-22T06:05:37.809Z,12.20
2022-10-22T06:07:10.935Z,12.09
2022-10-22T06:08:42.546Z,12.16
2022-10-22T06:10:14.829Z,12.26
2022-10-22T06:11:46.761Z,12.27
2022-10-22T06:13:18.396Z,12.17
2022-10-22T06:14:49.962Z,12.13
2022-10-22T06:16:21.570Z,11.92
2022-10-22T06:17:53.159Z,11.87
2022-10-22T06:19:26.828Z,12.01
2022-10-22T06:21:04.246Z,12.03
2022-10-22T06:22:37.218Z,12.09
2022-10-22T06:24:09.315Z,11.99
2022-10-22T06:25:41.105Z,11.99
2022-10-22T06:27:12.706Z,12.09
2022-10-22T06:28:44.357Z,12.18
2022-10-22T06:30:16.113Z,12.23
2022-10-22T06:31:47.787Z,12.21
2022-10-22T06:33:19.390Z,12.18
2022-10-22T06:34:51.059Z,12.31
2022-10-22T06:36:23.297Z,12.40
2022-10-22T06:37:56.237Z,12.48
2022-10-22T06:39:28.070Z,12.45
2022-10-22T06:41:02.984Z,12.38
2022-10-22T06:42:34.578Z,12.27
2022-10-22T06:44:06.159Z,12.27
2022-10-22T06:45:37.804Z,12.25
2022-10-22T06:47:09.410Z,12.23
2022-10-22T06:48:41.100Z,12.31
2022-10-22T06:50:12.713Z,12.39
2022-10-22T06:51:44.352Z,12.35
2022-10-22T06:53:17.632Z,12.29
2022-10-22T06:54:49.292Z,12.23
2022-10-22T06:56:21.765Z,12.31
2022-10-22T06:57:53.371Z,12.32
2022-10-22T06:59:25.006Z,12.27
2022-10-22T07:01:01.759Z,12.34
2022-10-22T07:02:33.511Z,12.38
2022-10-22T07:04:05.444Z,12.41
2022-10-22T07:05:37.094Z,12.43
2022-10-22T07:07:08.671Z,12.40
2022-10-22T07:08:41.874Z,12.39
2022-10-22T07:10:13.483Z,12.42
2022-10-22T07:11:45.773Z,12.40
2022-10-22T07:13:17.416Z,12.39
2022-10-22T07:14:49.015Z,12.36
2022-10-22T07:16:20.653Z,12.36
2022-10-22T07:17:52.221Z,12.46
2022-10-22T07:19:23.818Z,12.46
2022-10-22T07:20:55.473Z,12.48
2022-10-22T07:22:27.191Z,12.47
2022-10-22T07:24:00.288Z,12.52
2022-10-22T07:25:31.915Z,12.49
2022-10-22T07:27:05.108Z,12.57
2022-10-22T07:28:39.898Z,12.55
2022-10-22T07:30:12.103Z,12.45
2022-10-22T07:31:43.772Z,12.46
2022-10-22T07:33:15.477Z,12.52
2022-10-22T07:34:47.086Z,12.51
2022-10-22T07:36:18.862Z,12.59
2022-10-22T07:37:50.469Z,12.60
2022-10-22T07:39:25.736Z,12.62
2022-10-22T07:40:57.386Z,12.65
2022-10-22T07:44:01.502Z,12.69
2022-10-22T07:45:33.836Z,12.71
2022-10-22T07:47:05.513Z,12.68
2022-10-22T07:48:37.292Z,12.71
2022-10-22T07:50:09.769Z,12.74
2022-10-22T07:51:41.377Z,12.72
2022-10-22T07:53:13.062Z,12.69
2022-10-22T07:54:45.994Z,12.66
2022-10-22T07:56:17.902Z,12.69
2022-10-22T07:57:49.480Z,12.72
2022-10-22T07:59:21.173Z,12.74
2022-10-22T08:00:55.197Z,12.76
2022-10-22T08:02:26.782Z,12.73
2022-10-22T08:03:58.363Z,12.78
2022-10-22T08:05:30.019Z,12.77
2022-10-22T08:07:01.726Z,12.73
2022-10-22T08:08:34.706Z,12.63
2022-10-22T08:10:08.905Z,12.67
2022-10-22T08:11:40.536Z,12.76
2022-10-22T08:13:12.399Z,12.76
2022-10-22T08:14:44.030Z,12.79
2022-10-22T08:16:15.682Z,12.71
2022-10-22T08:17:47.310Z,12.78
2022-10-22T08:19:21.079Z,12.87
2022-10-22T08:20:52.878Z,12.94
2022-10-22T08:22:24.493Z,12.92
2022-10-22T08:23:56.101Z,12.89
2022-10-22T08:25:29.172Z,12.91
2022-10-22T08:27:00.849Z,13.00
2022-10-22T08:28:36.913Z,12.98
2022-10-22T08:30:09.998Z,13.06
2022-10-22T08:31:41.637Z,13.09
2022-10-22T08:33:13.256Z,13.14
2022-10-22T08:34:44.903Z,13.18
2022-10-22T08:36:16.524Z,13.25
2022-10-22T08:37:48.192Z,13.27
2022-10-22T08:39:19.830Z,13.31
2022-10-22T08:40:54.328Z,13.35
2022-10-22T08:42:40.680Z,13.39
2022-10-22T08:44:29.949Z,13.35
2022-10-22T08:46:08.816Z,13.35
2022-10-22T08:47:59.206Z,13.41
2022-10-22T08:49:35.105Z,13.29
2022-10-22T08:51:10.865Z,13.30
2022-10-22T08:52:43.023Z,13.29
2022-10-22T08:54:19.042Z,13.33
2022-10-22T08:55:53.749Z,13.31
2022-10-22T08:57:40.342Z,13.29
2022-10-22T08:59:14.679Z,13.36
2022-10-22T09:00:47.654Z,13.31
2022-10-22T09:02:33.628Z,13.30
2022-10-22T09:04:07.106Z,13.33
2022-10-22T09:05:42.609Z,13.36
2022-10-22T09:07:14.215Z,13.36
2022-10-22T09:08:46.522Z,13.36
2022-10-22T09:10:18.852Z,13.38
2022-10-22T09:11:52.780Z,13.38
2022-10-22T09:13:24.545Z,13.47
2022-10-22T09:14:56.171Z,13.51
2022-10-22T09:16:34.205Z,13.51
2022-10-22T09:18:15.199Z,13.46
2022-10-22T09:19:52.665Z,13.52
2022-10-22T09:21:27.893Z,13.60
2022-10-22T09:23:05.170Z,13.56
2022-10-22T09:24:37.637Z,13.55
2022-10-22T09:26:13.550Z,13.59
2022-10-22T09:27:46.555Z,13.60
2022-10-22T09:29:19.812Z,13.76
2022-10-22T09:30:51.905Z,13.68
2022-10-22T09:32:23.756Z,13.86
2022-10-22T09:33:55.448Z,13.87
2022-10-22T09:35:27.233Z,13.79
2022-10-22T09:36:59.768Z,13.91
2022-10-22T09:38:32.584Z,14.02
2022-10-22T09:40:04.657Z,14.05
2022-10-22T09:41:36.247Z,13.98
2022-10-22T09:43:10.845Z,13.99
2022-10-22T09:44:46.317Z,14.03
2022-10-22T09:46:20.679Z,14.10
2022-10-22T09:48:18.818Z,14.11
2022-10-22T09:49:50.464Z,14.05
2022-10-22T09:51:25.794Z,14.04
2022-10-22T09:53:01.583Z,14.26
2022-10-22T09:54:42.397Z,14.19
2022-10-22T09:56:18.766Z,14.14
2022-10-22T09:57:53.138Z,14.18
2022-10-22T09:59:30.479Z,14.21
2022-10-22T10:01:02.255Z,14.35
2022-10-22T10:02:38.587Z,14.43
2022-10-22T10:04:12.145Z,14.35
2022-10-22T10:05:44.574Z,14.29
2022-10-22T10:07:16.744Z,14.35
2022-10-22T10:08:48.897Z,14.47
2022-10-22T10:10:25.117Z,14.58
2022-10-22T10:11:59.331Z,14.49
2022-10-22T10:13:38.230Z,14.70
2022-10-22T10:15:16.708Z,14.50
2022-10-22T10:16:54.140Z,14.67
2022-10-22T10:18:31.039Z,14.70
2022-10-22T10:20:10.524Z,14.69
2022-10-22T10:21:47.303Z,14.74
2022-10-22T10:23:24.436Z,14.83
2022-10-22T10:25:04.999Z,14.83
2022-10-22T10:26:38.878Z,14.82
2022-10-22T10:28:18.399Z,14.89
2022-10-22T10:29:52.796Z,14.81
2022-10-22T10:31:33.014Z,14.72
2022-10-22T10:33:13.767Z,14.75
2022-10-22T10:34:48.307Z,14.67
2022-10-22T10:36:24.687Z,14.92
2022-10-22T10:38:04.414Z,14.79
2022-10-22T10:39:39.659Z,14.79
2022-10-22T10:41:18.138Z,14.94
2022-10-22T10:42:53.195Z,15.15
2022-10-22T10:44:36.567Z,15.21
2022-10-22T10:46:10.973Z,15.18
2022-10-22T10:48:09.890Z,14.99
2022-10-22T10:49:41.586Z,14.95
2022-10-22T10:51:26.213Z,15.11
2022-10-22T10:53:02.592Z,15.16
2022-10-22T10:54:42.515Z,15.22
2022-10-22T10:56:24.155Z,15.15
2022-10-22T10:57:59.824Z,15.18
2022-10-22T10:59:38.924Z,15.20
2022-10-22T11:01:16.883Z,15.26
2022-10-22T11:03:12.605Z,15.51
2022-10-22T11:05:13.068Z,15.46
2022-10-22T11:06:44.827Z,15.53
2022-10-22T11:08:18.814Z,15.70
2022-10-22T11:09:53.370Z,15.80
2022-10-22T11:11:29.830Z,15.79
2022-10-22T11:13:05.078Z,15.76
2022-10-22T11:14:40.079Z,15.70
2022-10-22T11:16:16.630Z,15.85
2022-10-22T11:17:48.817Z,15.66
2022-10-22T11:19:39.635Z,15.77
2022-10-22T11:21:19.090Z,15.97
2022-10-22T11:23:17.585Z,16.27
2022-10-22T11:24:47.677Z,16.69
2022-10-22T11:26:26.742Z,16.43
2022-10-22T11:28:06.598Z,16.05
2022-10-22T11:29:41.095Z,16.15
2022-10-22T11:31:15.722Z,16.09
2022-10-22T11:32:48.043Z,16.23
2022-10-22T11:34:33.290Z,16.36
2022-10-22T11:36:05.943Z,16.25
2022-10-22T11:37:39.167Z,16.21
2022-10-22T11:39:30.210Z,16.82
2022-10-22T11:41:02.610Z,16.45
2022-10-22T11:42:34.910Z,16.48
2022-10-22T11:44:10.490Z,16.38
2022-10-22T11:45:42.731Z,16.35
2022-10-22T11:47:18.925Z,16.60
2022-10-22T11:49:01.246Z,16.56
2022-10-22T11:50:50.723Z,16.69
2022-10-22T11:52:24.279Z,16.87
2022-10-22T11:53:56.013Z,16.75
2022-10-22T11:55:31.466Z,16.78
2022-10-22T11:57:17.548Z,17.00
2022-10-22T11:58:52.328Z,17.09
2022-10-22T12:00:39.826Z,17.30
2022-10-22T12:02:42.268Z,17.55
2022-10-22T12:04:18.975Z,17.80
2022-10-22T12:06:11.567Z,17.71
2022-10-22T12:07:51.745Z,17.75
2022-10-22T12:09:24.704Z,17.57
2022-10-22T12:11:11.881Z,17.87
2022-10-22T12:12:43.666Z,18.03
2022-10-22T12:14:22.980Z,17.92
2022-10-22T12:15:56.659Z,17.89
2022-10-22T12:17:28.382Z,17.63
2022-10-22T12:19:02.904Z,17.86
2022-10-22T12:20:34.504Z,18.25
2022-10-22T12:22:13.955Z,18.22
2022-10-22T12:23:46.717Z,18.06
2022-10-22T12:25:21.445Z,18.22
2022-10-22T12:26:53.200Z,18.42
2022-10-22T12:28:24.814Z,18.46
2022-10-22T12:29:57.112Z,18.55
2022-10-22T12:31:28.929Z,18.76
2022-10-22T12:33:01.992Z,18.70
2022-10-22T12:34:33.620Z,18.64
2022-10-22T12:36:06.071Z,18.75
2022-10-22T12:37:39.306Z,18.59
2022-10-22T12:39:12.657Z,18.87
2022-10-22T12:40:48.728Z,19.03
2022-10-22T12:42:22.534Z,19.43
2022-10-22T12:43:59.081Z,19.56
2022-10-22T12:45:32.013Z,19.52
2022-10-22T12:47:03.640Z,19.51
2022-10-22T12:48:37.398Z,19.33
2022-10-22T12:50:16.143Z,19.20
2022-10-22T12:51:47.904Z,19.44
2022-10-22T12:53:22.615Z,19.34
2022-10-22T12:54:54.802Z,19.67
2022-10-22T12:56:27.554Z,20.02
2022-10-22T12:57:59.116Z,20.08
2022-10-22T12:59:33.030Z,19.44
2022-10-22T13:01:04.852Z,19.62
2022-10-22T13:02:36.479Z,20.38
2022-10-22T13:04:20.286Z,20.20
2022-10-22T13:05:51.907Z,20.19
2022-10-22T13:07:23.564Z,19.70
2022-10-22T13:08:58.885Z,19.83
2022-10-22T13:10:32.078Z,20.10
2022-10-22T13:12:07.405Z,20.33
2022-10-22T13:13:43.068Z,20.08
2022-10-22T13:15:22.920Z,20.33
2022-10-22T13:17:08.490Z,20.79
2022-10-22T13:18:40.307Z,20.12
2022-10-22T13:20:18.007Z,20.07
2022-10-22T13:21:49.578Z,20.47
2022-10-22T13:23:22.117Z,20.60
2022-10-22T13:24:59.308Z,19.99
2022-10-22T13:26:32.867Z,20.58
2022-10-22T13:28:16.693Z,20.91
2022-10-22T13:29:48.696Z,21.14
2022-10-22T13:31:21.520Z,21.10
2022-10-22T13:32:54.311Z,21.70
2022-10-22T13:34:25.949Z,20.94
2022-10-22T13:35:57.508Z,20.99
2022-10-22T13:37:30.034Z,21.18
2022-10-22T13:39:02.020Z,21.74
2022-10-22T13:40:35.055Z,21.85
2022-10-22T13:42:11.557Z,21.62
2022-10-22T13:43:43.218Z,21.29
2022-10-22T13:45:15.214Z,20.61
2022-10-22T13:46:46.881Z,20.69
2022-10-22T13:48:21.718Z,21.79
2022-10-22T13:51:29.035Z,21.32
2022-10-22T13:53:00.646Z,21.51
2022-10-22T13:54:32.235Z,21.78
2022-10-22T13:56:05.595Z,21.82
2022-10-22T13:57:37.163Z,21.33
2022-10-22T13:59:09.062Z,21.04
2022-10-22T14:00:41.774Z,20.86
2022-10-22T14:02:13.556Z,20.58
2022-10-22T14:03:45.186Z,20.83
2022-10-22T14:05:16.871Z,21.20
2022-10-22T14:06:48.461Z,20.62
2022-10-22T14:08:20.693Z,21.30
2022-10-22T14:09:52.321Z,21.21
2022-10-22T14:11:27.185Z,21.21
2022-10-22T14:12:58.762Z,20.72
2022-10-22T14:14:30.367Z,20.17
2022-10-22T14:16:02.007Z,20.77
2022-10-22T14:17:33.570Z,21.02
2022-10-22T14:19:05.224Z,21.33
2022-10-22T14:20:37.367Z,20.46
2022-10-22T14:22:13.123Z,20.75
2022-10-22T14:23:46.117Z,20.53
2022-10-22T14:25:18.946Z,19.81
2022-10-22T14:26:51.893Z,19.86
2022-10-22T14:28:23.529Z,19.22
2022-10-22T14:29:59.409Z,19.47
2022-10-22T14:31:31.276Z,19.51
2022-10-22T14:33:02.915Z,19.21
2022-10-22T14:34:35.272Z,19.45
2022-10-22T14:36:07.292Z,19.69
2022-10-22T14:37:38.870Z,19.07
2022-10-22T14:39:10.550Z,18.68
2022-10-22T14:40:42.952Z,18.84
2022-10-22T14:42:16.655Z,18.80
2022-10-22T14:43:48.364Z,18.78
2022-10-22T14:45:21.243Z,18.94
2022-10-22T14:46:56.166Z,18.85
2022-10-22T14:48:27.752Z,18.78
2022-10-22T14:49:59.527Z,18.55
2022-10-22T14:51:31.147Z,18.44
2022-10-22T14:53:02.714Z,18.46
2022-10-22T14:54:35.266Z,18.35
2022-10-22T14:56:06.953Z,18.20
2022-10-22T14:57:40.253Z,18.00
2022-10-22T14:59:12.212Z,18.18
2022-10-22T15:00:43.943Z,17.99
2022-10-22T15:02:15.596Z,18.00
2022-10-22T15:03:47.241Z,17.77
2022-10-22T15:05:19.208Z,18.10
2022-10-22T15:06:50.772Z,17.98
2022-10-22T15:08:22.330Z,17.71
2022-10-22T15:09:54.043Z,17.71
2022-10-22T15:11:25.704Z,17.82
2022-10-22T15:12:58.686Z,17.80
2022-10-22T15:14:33.097Z,17.86
2022-10-22T15:16:05.910Z,17.77
2022-10-22T15:17:37.581Z,17.78
2022-10-22T15:19:11.102Z,17.68
2022-10-22T15:20:42.719Z,17.58
2022-10-22T15:22:14.481Z,17.56
2022-10-22T15:23:46.083Z,17.43
2022-10-22T15:25:17.702Z,17.51
2022-10-22T15:26:50.931Z,17.39
2022-10-22T15:28:24.416Z,17.51
2022-10-22T15:29:58.746Z,17.22
2022-10-22T15:31:47.282Z,17.27
2022-10-22T15:33:18.995Z,17.32
2022-10-22T15:34:52.447Z,17.20
2022-10-22T15:36:24.202Z,17.25
2022-10-22T15:37:55.831Z,17.27
2022-10-22T15:39:27.481Z,17.20
2022-10-22T15:41:04.575Z,17.15
2022-10-22T15:42:37.396Z,17.07
2022-10-22T15:44:12.493Z,17.04
2022-10-22T15:45:44.416Z,16.95
2022-10-22T15:47:16.034Z,16.69
2022-10-22T15:48:47.651Z,16.96
2022-10-22T15:50:19.453Z,16.99
2022-10-22T15:51:51.088Z,16.71
2022-10-22T15:53:22.674Z,16.69
2022-10-22T15:54:54.412Z,16.65
2022-10-22T15:56:26.692Z,16.71
2022-10-22T15:58:00.624Z,16.72
2022-10-22T15:59:36.650Z,16.76
2022-10-22T16:01:09.225Z,16.72
2022-10-22T16:02:40.930Z,16.75
2022-10-22T16:04:12.582Z,16.64
2022-10-22T16:05:50.254Z,16.58
2022-10-22T16:07:23.977Z,16.36
2022-10-22T16:08:56.678Z,16.46
2022-10-22T16:10:28.419Z,15.94
2022-10-22T16:12:00.168Z,16.05
2022-10-22T16:13:31.796Z,16.32
2022-10-22T16:15:05.756Z,16.08
2022-10-22T16:16:39.799Z,16.04
2022-10-22T16:18:11.377Z,16.20
2022-10-22T16:19:42.935Z,16.05
2022-10-22T16:21:14.647Z,16.09
2022-10-22T16:22:49.699Z,15.97
2022-10-22T16:24:21.426Z,15.90
2022-10-22T16:25:53.102Z,15.75
2022-10-22T16:27:27.182Z,15.44
2022-10-22T16:28:58.800Z,15.70
2022-10-22T16:30:32.521Z,15.72
2022-10-22T16:32:04.601Z,15.72
2022-10-22T16:33:41.486Z,15.66
2022-10-22T16:35:16.436Z,15.68
2022-10-22T16:36:48.891Z,15.57
2022-10-22T16:38:20.539Z,15.57
2022-10-22T16:39:52.142Z,15.59
2022-10-22T16:41:24.399Z,15.38
2022-10-22T16:42:56.009Z,15.27
2022-10-22T16:44:27.765Z,15.15
2022-10-22T16:46:03.061Z,15.34
2022-10-22T16:47:34.679Z,15.39
2022-10-22T16:49:06.459Z,15.07
2022-10-22T16:50:39.051Z,15.19
2022-10-22T16:52:10.630Z,15.32
2022-10-22T16:53:42.434Z,15.34
2022-10-22T16:55:14.131Z,15.32
2022-10-22T16:56:45.772Z,15.23
2022-10-22T16:58:17.458Z,15.15
2022-10-22T16:59:49.182Z,14.98
2022-10-22T17:01:23.157Z,15.09
2022-10-22T17:02:54.893Z,15.11
2022-10-22T17:04:26.543Z,14.91
2022-10-22T17:05:58.362Z,14.92
2022-10-22T17:07:30.050Z,14.99
2022-10-22T17:09:01.802Z,14.90
2022-10-22T17:10:35.248Z,15.02
2022-10-22T17:12:06.983Z,14.98
2022-10-22T17:13:39.669Z,14.75
2022-10-22T17:15:11.367Z,14.70
2022-10-22T17:16:44.967Z,14.69
2022-10-22T17:18:16.643Z,14.66
2022-10-22T17:19:48.212Z,14.67
2022-10-22T17:21:20.085Z,14.76
2022-10-22T17:22:51.757Z,14.75
2022-10-22T17:24:23.508Z,14.54
2022-10-22T17:25:57.648Z,14.50
2022-10-22T17:27:29.237Z,14.44
2022-10-22T17:29:00.890Z,14.58
2022-10-22T17:30:32.519Z,14.67
2022-10-22T17:32:05.647Z,14.39
2022-10-22T17:33:37.279Z,14.48
2022-10-22T17:35:09.296Z,14.17
2022-10-22T17:36:40.952Z,14.39
2022-10-22T17:38:12.990Z,14.49
2022-10-22T17:39:44.714Z,14.16
2022-10-22T17:41:20.495Z,14.26
2022-10-22T17:42:52.206Z,14.38
2022-10-22T17:44:23.781Z,14.31
2022-10-22T17:46:16.259Z,14.33
2022-10-22T17:47:49.324Z,14.08
2022-10-22T17:49:20.973Z,14.10
2022-10-22T17:50:54.651Z,14.09
2022-10-22T17:52:28.461Z,14.36
2022-10-22T17:54:01.705Z,14.30
2022-10-22T17:55:35.223Z,14.31
2022-10-22T17:57:06.843Z,14.28
2022-10-22T17:58:38.522Z,14.24
2022-10-22T18:00:11.600Z,14.09
2022-10-22T18:01:47.636Z,13.73
2022-10-22T18:03:21.090Z,13.72
2022-10-22T18:04:52.847Z,13.45
2022-10-22T18:06:24.479Z,13.44
2022-10-22T18:07:56.282Z,13.90
2022-10-22T18:09:27.903Z,14.02
2022-10-22T18:10:59.911Z,14.12
2022-10-22T18:12:31.472Z,14.06
2022-10-22T18:14:03.285Z,14.10
2022-10-22T18:15:36.363Z,14.08
2022-10-22T18:17:08.286Z,14.00
2022-10-22T18:18:41.344Z,13.88
2022-10-22T18:20:14.140Z,13.66
2022-10-22T18:21:48.689Z,13.83
2022-10-22T18:23:20.453Z,13.93
2022-10-22T18:24:53.043Z,13.90
2022-10-22T18:26:26.877Z,14.02
2022-10-22T18:27:58.873Z,13.89
2022-10-22T18:29:30.574Z,13.97
2022-10-22T18:31:05.136Z,14.00
2022-10-22T18:32:36.747Z,13.90
2022-10-22T18:34:23.212Z,13.96
2022-10-22T18:35:56.838Z,13.77
2022-10-22T18:37:28.509Z,13.70
2022-10-22T18:39:00.953Z,13.70
2022-10-22T18:40:32.691Z,13.59
2022-10-22T18:42:06.921Z,13.56
2022-10-22T18:43:38.780Z,13.67
2022-10-22T18:45:12.030Z,13.75
2022-10-22T18:46:46.781Z,13.82
2022-10-22T18:48:19.468Z,13.67
2022-10-22T18:49:52.746Z,13.76
2022-10-22T18:51:24.650Z,13.83
2022-10-22T18:52:56.383Z,13.83
2022-10-22T18:54:28.006Z,13.82
2022-10-22T18:55:59.642Z,13.74
2022-10-22T18:57:31.352Z,13.78
2022-10-22T18:59:02.989Z,13.46
2022-10-22T19:00:37.017Z,13.34
2022-10-22T19:02:09.110Z,13.56
2022-10-22T19:03:40.871Z,13.48
2022-10-22T19:05:13.803Z,13.30
2022-10-22T19:06:46.031Z,13.41
2022-10-22T19:08:18.090Z,13.37
2022-10-22T19:09:49.839Z,13.47
2022-10-22T19:11:21.729Z,13.36
2022-10-22T19:12:53.504Z,13.46
2022-10-22T19:14:25.190Z,13.48
2022-10-22T19:16:01.927Z,13.46
2022-10-22T19:17:34.205Z,13.46
2022-10-22T19:19:06.680Z,13.67
2022-10-22T19:20:39.679Z,13.38
2022-10-22T19:22:11.254Z,13.44
2022-10-22T19:25:16.878Z,13.32
2022-10-22T19:26:48.782Z,13.41
2022-10-22T19:28:20.397Z,13.35
2022-10-22T19:29:51.986Z,13.54
2022-10-22T19:31:25.921Z,13.53
2022-10-22T19:32:57.760Z,13.60
2022-10-22T19:34:29.362Z,13.55
2022-10-22T19:36:07.868Z,13.32
2022-10-22T19:37:39.502Z,13.34
2022-10-22T19:39:11.091Z,13.36
2022-10-22T19:40:42.714Z,13.48
2022-10-22T19:42:14.760Z,13.59
2022-10-22T19:43:48.473Z,13.42
2022-10-22T19:45:20.118Z,13.49
2022-10-22T19:46:51.731Z,13.47
2022-10-22T19:48:23.373Z,13.46
2022-10-22T19:49:55.031Z,13.40
2022-10-22T19:51:29.830Z,13.47
2022-10-22T19:53:01.711Z,13.46
2022-10-22T19:54:33.330Z,13.43
2022-10-22T19:56:05.304Z,13.31
2022-10-22T19:57:38.937Z,13.28
2022-10-22T19:59:13.288Z,13.19
2022-10-22T20:00:45.004Z,13.27
2022-10-22T20:02:17.388Z,13.22
2022-10-22T20:03:49.178Z,13.24
2022-10-22T20:05:20.769Z,13.23
2022-10-22T20:06:53.922Z,13.13
2022-10-22T20:08:25.635Z,13.27
2022-10-22T20:09:57.392Z,13.38
2022-10-22T20:11:29.461Z,13.30
2022-10-22T20:13:04.043Z,13.23
2022-10-22T20:14:35.770Z,13.20